Time;durP1;ratioP1;P1;durP2;ratioP2;P2;SDS_P1;SDS_P2;PMS_P1;PMS_P2;Temp;Humidity;BMP_temperature;BMP_pressure;BME280_temperature;BME280_humidity;BME280_pressure;Samples;Min_cycle;Max_cycle;Signal;HPM_P1;HPM_P2
2023/05/25 00:01:42;;;;;;;7.63;6.60;;;14.80;99.90;;;;;;5009878;28;20554;-76
2023/05/25 00:04:09;;;;;;;8.30;6.20;;;14.70;99.90;;;;;;5012256;28;20469;-74
2023/05/25 00:06:39;;;;;;;6.43;5.20;;;14.70;99.90;;;;;;5012465;28;20476;-75
2023/05/25 00:09:08;;;;;;;6.87;6.23;;;14.70;99.90;;;;;;5011149;28;20660;-75
2023/05/25 00:11:35;;;;;;;7.87;5.00;;;14.70;99.90;;;;;;5013164;28;20467;-76
2023/05/25 00:14:05;;;;;;;10.30;6.40;;;14.70;99.90;;;;;;5010460;28;20473;-75
2023/05/25 00:16:36;;;;;;;8.77;5.00;;;14.70;99.90;;;;;;4993418;28;20470;-76
2023/05/25 00:19:09;;;;;;;8.10;5.30;;;14.70;99.90;;;;;;5011759;28;20469;-74
2023/05/25 00:24:24;;;;;;;5.90;4.97;;;14.70;99.90;;;;;;5012098;28;20468;-74
2023/05/25 00:26:51;;;;;;;11.20;6.47;;;14.70;99.90;;;;;;5011288;28;20479;-75
2023/05/25 00:29:20;;;;;;;7.70;5.47;;;14.70;99.90;;;;;;5009687;28;20476;-76
2023/05/25 00:31:47;;;;;;;7.70;5.10;;;14.70;99.90;;;;;;4987895;28;20487;-74
2023/05/25 00:34:23;;;;;;;7.17;6.00;;;14.70;99.90;;;;;;5000922;28;20473;-76
2023/05/25 00:36:50;;;;;;;11.00;6.03;;;14.70;99.90;;;;;;4996561;28;20464;-74
2023/05/25 00:39:19;;;;;;;7.70;4.90;;;14.70;99.90;;;;;;5012589;28;20500;-74
2023/05/25 00:41:49;;;;;;;7.03;5.57;;;14.70;99.90;;;;;;5012459;28;20534;-76
2023/05/25 00:44:20;;;;;;;8.20;5.17;;;14.70;99.90;;;;;;5014141;28;20479;-76
2023/05/25 00:46:50;;;;;;;6.67;5.60;;;14.70;99.90;;;;;;5016238;28;20477;-76
2023/05/25 00:49:22;;;;;;;7.93;6.10;;;14.70;99.90;;;;;;5015465;28;20516;-75
2023/05/25 00:51:51;;;;;;;6.70;5.30;;;14.70;99.90;;;;;;5015796;28;20464;-76
2023/05/25 00:54:19;;;;;;;6.15;4.90;;;14.70;99.90;;;;;;5015374;28;20588;-76
2023/05/25 00:56:50;;;;;;;6.50;5.63;;;14.70;99.90;;;;;;5015374;28;20222;-75
2023/05/25 00:59:26;;;;;;;7.67;5.17;;;14.70;99.90;;;;;;5015030;28;20464;-75
2023/05/25 01:01:56;;;;;;;8.07;5.37;;;14.70;99.90;;;;;;5015974;28;20464;-76
2023/05/25 01:04:24;;;;;;;8.50;6.20;;;14.70;99.90;;;;;;5015155;28;20473;-75
2023/05/25 01:06:53;;;;;;;5.93;4.90;;;14.70;99.90;;;;;;5015797;28;20461;-75
2023/05/25 01:09:22;;;;;;;7.20;5.50;;;14.60;99.90;;;;;;5015623;28;20860;-75
2023/05/25 01:11:53;;;;;;;9.17;6.40;;;14.60;99.90;;;;;;5005326;28;20469;-75
2023/05/25 01:14:23;;;;;;;9.43;5.70;;;14.60;99.90;;;;;;5014717;28;21034;-75
2023/05/25 01:16:51;;;;;;;5.67;4.80;;;14.50;99.90;;;;;;5015593;28;20560;-75
2023/05/25 01:19:20;;;;;;;8.83;5.50;;;14.50;99.90;;;;;;5014873;28;20473;-75
2023/05/25 01:21:59;;;;;;;5.40;4.90;;;14.50;99.90;;;;;;5015365;28;20484;-75
2023/05/25 01:24:34;;;;;;;7.70;5.50;;;14.50;99.90;;;;;;5005999;28;20814;-75
2023/05/25 01:27:08;;;;;;;7.67;4.90;;;14.50;99.90;;;;;;5015458;28;20800;-76
2023/05/25 01:29:36;;;;;;;8.30;5.13;;;14.40;99.90;;;;;;5014310;28;20476;-75
2023/05/25 01:32:04;;;;;;;8.83;7.27;;;14.40;99.90;;;;;;5015008;28;20548;-75
2023/05/25 01:34:32;;;;;;;10.83;6.33;;;14.40;99.90;;;;;;5014844;28;20469;-76
2023/05/25 01:37:01;;;;;;;6.60;5.87;;;14.40;99.90;;;;;;5015438;28;21050;-74
2023/05/25 01:39:30;;;;;;;6.93;5.40;;;14.30;99.90;;;;;;5014496;28;20798;-75
2023/05/25 01:41:57;;;;;;;7.03;5.13;;;14.30;99.90;;;;;;5015162;28;20476;-74
2023/05/25 01:44:24;;;;;;;8.30;5.90;;;14.30;99.90;;;;;;5002419;28;20870;-74
2023/05/25 01:46:58;;;;;;;10.10;5.77;;;14.20;99.90;;;;;;5013749;28;20468;-75
2023/05/25 01:49:46;;;;;;;6.40;5.38;;;14.20;99.90;;;;;;5014659;28;20484;-75
2023/05/25 01:52:22;;;;;;;6.60;5.10;;;14.20;99.90;;;;;;5014717;28;20245;-74
2023/05/25 01:54:55;;;;;;;6.13;4.40;;;14.20;99.90;;;;;;5014199;28;20629;-74
2023/05/25 01:57:24;;;;;;;8.33;5.40;;;14.20;99.90;;;;;;5014676;28;20477;-76
2023/05/25 01:59:54;;;;;;;8.95;6.00;;;14.20;99.90;;;;;;5014243;28;20462;-76
2023/05/25 02:02:22;;;;;;;7.25;6.00;;;14.20;99.90;;;;;;5013757;28;20302;-76
2023/05/25 02:04:50;;;;;;;7.18;5.03;;;14.20;99.90;;;;;;5014249;28;20313;-74
2023/05/25 02:07:18;;;;;;;6.60;6.00;;;14.20;99.90;;;;;;5012897;28;20252;-74
2023/05/25 02:09:45;;;;;;;8.80;6.18;;;14.10;99.90;;;;;;5014298;28;20465;-76
2023/05/25 02:12:12;;;;;;;9.50;6.23;;;14.10;99.90;;;;;;5014759;28;20233;-74
2023/05/25 02:14:39;;;;;;;6.53;5.40;;;14.10;99.90;;;;;;5014099;28;20473;-74
2023/05/25 02:17:06;;;;;;;7.05;6.32;;;14.10;99.90;;;;;;5014231;28;20672;-75
2023/05/25 02:19:33;;;;;;;7.60;6.30;;;14.10;99.90;;;;;;5013602;28;20230;-75
2023/05/25 02:22:00;;;;;;;12.48;6.30;;;14.10;99.90;;;;;;5014104;28;20473;-76
2023/05/25 02:24:29;;;;;;;9.23;6.53;;;14.10;99.90;;;;;;5012674;28;20280;-75
2023/05/25 02:26:56;;;;;;;8.10;6.90;;;14.00;99.90;;;;;;5013902;28;20481;-75
2023/05/25 02:29:23;;;;;;;7.18;6.45;;;14.00;99.90;;;;;;5013590;28;20496;-75
2023/05/25 02:31:50;;;;;;;9.10;6.03;;;14.00;99.90;;;;;;5013806;28;20229;-75
2023/05/25 02:34:17;;;;;;;6.77;6.00;;;14.00;99.90;;;;;;5013916;28;20846;-75
2023/05/25 02:36:44;;;;;;;7.40;6.50;;;14.00;99.90;;;;;;5016685;28;20507;-75
2023/05/25 02:39:12;;;;;;;9.70;5.90;;;13.90;99.90;;;;;;5033334;28;20479;-76
2023/05/25 02:41:45;;;;;;;7.93;6.50;;;13.90;99.90;;;;;;5032830;28;20455;-75
2023/05/25 02:44:13;;;;;;;10.55;6.60;;;13.90;99.90;;;;;;5033676;28;20468;-76
2023/05/25 02:46:40;;;;;;;7.07;6.38;;;13.90;99.90;;;;;;5033063;28;20588;-76
2023/05/25 02:49:09;;;;;;;9.82;6.75;;;13.90;99.90;;;;;;5033302;28;20276;-76
2023/05/25 02:51:36;;;;;;;9.43;5.82;;;13.90;99.90;;;;;;5032586;28;20564;-75
2023/05/25 02:54:04;;;;;;;10.90;6.50;;;13.80;99.90;;;;;;5032817;28;20227;-76
2023/05/25 02:56:31;;;;;;;7.03;6.32;;;13.80;99.90;;;;;;5032214;28;20292;-75
2023/05/25 02:59:00;;;;;;;7.05;5.72;;;13.80;99.90;;;;;;5033152;28;20240;-76
2023/05/25 03:01:29;;;;;;;7.07;6.07;;;13.80;99.90;;;;;;5032768;28;20225;-75
2023/05/25 03:03:56;;;;;;;8.13;6.60;;;13.80;99.90;;;;;;5033322;28;20233;-75
2023/05/25 03:06:24;;;;;;;8.35;6.57;;;13.80;99.90;;;;;;5031447;28;20267;-75
2023/05/25 03:08:51;;;;;;;6.68;5.28;;;13.80;99.90;;;;;;5032482;28;20214;-75
2023/05/25 03:11:18;;;;;;;8.05;6.82;;;13.80;99.90;;;;;;5032931;28;20597;-75
2023/05/25 03:13:45;;;;;;;9.80;7.83;;;13.70;99.90;;;;;;5032602;28;20271;-76
2023/05/25 03:16:14;;;;;;;9.68;6.55;;;13.70;99.90;;;;;;5033127;28;20476;-75
2023/05/25 03:18:41;;;;;;;7.78;5.85;;;13.70;99.90;;;;;;5032400;28;20600;-75
2023/05/25 03:21:10;;;;;;;6.85;5.20;;;13.70;99.90;;;;;;5023438;28;20221;-75
2023/05/25 03:23:37;;;;;;;10.75;7.85;;;13.70;99.90;;;;;;5032473;28;20225;-76
2023/05/25 03:26:09;;;;;;;8.25;6.10;;;13.70;99.90;;;;;;5032999;28;20225;-76
2023/05/25 03:28:36;;;;;;;7.80;6.15;;;13.70;99.90;;;;;;5032616;28;20259;-76
2023/05/25 03:31:03;;;;;;;7.23;6.40;;;13.70;99.90;;;;;;5033315;28;20623;-75
2023/05/25 03:33:32;;;;;;;9.85;6.10;;;13.70;99.90;;;;;;5032946;28;20539;-75
2023/05/25 03:35:59;;;;;;;11.75;7.60;;;13.70;99.90;;;;;;5018202;28;20230;-76
2023/05/25 03:38:26;;;;;;;8.90;8.02;;;13.60;99.90;;;;;;5032663;28;20225;-74
2023/05/25 03:40:55;;;;;;;8.52;6.32;;;13.60;99.90;;;;;;5032808;28;20561;-75
2023/05/25 03:43:24;;;;;;;9.52;6.25;;;13.70;99.90;;;;;;5032296;28;20229;-77
2023/05/25 03:45:51;;;;;;;9.30;6.45;;;13.70;99.90;;;;;;5032403;28;20237;-75
2023/05/25 03:48:18;;;;;;;6.90;6.20;;;13.70;99.90;;;;;;5032391;28;20233;-75
2023/05/25 03:50:46;;;;;;;10.63;6.83;;;13.70;99.90;;;;;;5032942;28;20304;-76
2023/05/25 03:53:22;;;;;;;6.95;6.30;;;13.70;99.90;;;;;;5022691;28;20472;-75
2023/05/25 03:55:52;;;;;;;19.52;8.10;;;13.70;99.90;;;;;;5032755;28;20279;-75
2023/05/25 03:58:19;;;;;;;11.30;7.20;;;13.70;99.90;;;;;;5031776;28;20233;-75
2023/05/25 04:00:47;;;;;;;9.35;6.85;;;13.70;99.90;;;;;;5032367;28;20217;-76
2023/05/25 04:03:14;;;;;;;7.97;5.97;;;13.70;99.90;;;;;;5030335;28;20316;-75
2023/05/25 04:05:42;;;;;;;6.95;6.25;;;13.70;99.90;;;;;;5032558;28;20271;-76
2023/05/25 04:08:10;;;;;;;9.88;6.55;;;13.70;99.90;;;;;;5032639;28;20230;-76
2023/05/25 04:10:37;;;;;;;11.00;6.80;;;13.80;99.90;;;;;;5031329;28;20229;-76
2023/05/25 04:13:04;;;;;;;11.40;8.88;;;13.80;99.90;;;;;;5032386;28;20755;-75
2023/05/25 04:15:33;;;;;;;10.00;7.63;;;13.80;99.90;;;;;;5032139;28;20229;-76
2023/05/25 04:18:01;;;;;;;7.80;6.50;;;13.90;99.90;;;;;;5034857;28;20479;-75
2023/05/25 04:20:29;;;;;;;11.40;7.97;;;13.90;99.90;;;;;;5036592;28;20730;-76
2023/05/25 04:22:56;;;;;;;8.20;7.35;;;14.00;99.90;;;;;;5036604;28;20479;-76
2023/05/25 04:25:30;;;;;;;9.38;7.22;;;14.00;99.90;;;;;;5036156;28;20316;-75
2023/05/25 04:27:58;;;;;;;10.52;7.90;;;14.10;99.90;;;;;;5036513;28;20221;-76
2023/05/25 04:30:24;;;;;;;9.03;7.10;;;14.00;99.90;;;;;;5035671;28;20221;-76
2023/05/25 04:32:52;;;;;;;9.47;7.57;;;14.10;99.90;;;;;;5036873;28;20463;-75
2023/05/25 04:35:22;;;;;;;11.52;7.70;;;14.10;99.90;;;;;;5035458;28;20476;-75
2023/05/25 04:37:50;;;;;;;8.73;7.80;;;14.20;99.90;;;;;;5036354;28;20563;-76
2023/05/25 04:40:17;;;;;;;12.20;10.13;;;14.20;99.90;;;;;;5035418;28;20225;-75
2023/05/25 04:42:52;;;;;;;9.23;8.27;;;14.30;99.90;;;;;;5036357;28;20468;-77
2023/05/25 04:45:28;;;;;;;18.93;11.40;;;14.30;99.90;;;;;;5036697;28;20853;-75
2023/05/25 04:47:57;;;;;;;12.20;8.87;;;14.40;99.90;;;;;;5037262;28;20767;-76
2023/05/25 04:50:24;;;;;;;17.27;9.23;;;14.40;99.90;;;;;;5036650;28;20468;-75
2023/05/25 04:52:59;;;;;;;12.30;10.10;;;14.40;99.90;;;;;;5037632;28;20467;-76
2023/05/25 04:55:26;;;;;;;12.43;9.73;;;14.40;99.90;;;;;;5036269;28;20969;-75
2023/05/25 04:57:54;;;;;;;11.60;8.33;;;14.50;99.90;;;;;;5036231;28;20257;-75
2023/05/25 05:00:29;;;;;;;32.93;19.17;;;14.60;99.90;;;;;;5026701;28;20468;-76
2023/05/25 05:02:56;;;;;;;16.57;14.80;;;14.60;99.90;;;;;;5036432;28;20525;-75
2023/05/25 05:05:26;;;;;;;16.77;9.87;;;14.60;99.90;;;;;;5034840;28;20820;-76
2023/05/25 05:07:53;;;;;;;10.00;8.50;;;14.70;99.90;;;;;;5036039;28;20955;-77
2023/05/25 05:10:20;;;;;;;9.93;6.87;;;14.70;99.90;;;;;;5035614;28;20494;-75
2023/05/25 05:12:47;;;;;;;13.80;9.93;;;14.80;99.90;;;;;;5035177;28;20504;-75
2023/05/25 05:15:16;;;;;;;9.93;7.43;;;14.80;99.90;;;;;;5035016;28;20932;-75
2023/05/25 05:17:43;;;;;;;12.93;9.07;;;14.90;99.90;;;;;;5024230;28;20479;-75
2023/05/25 05:20:10;;;;;;;10.70;8.00;;;14.90;99.90;;;;;;5034895;28;20468;-76
2023/05/25 05:22:37;;;;;;;10.17;6.53;;;15.00;99.90;;;;;;5034749;28;20468;-75
2023/05/25 05:25:06;;;;;;;8.33;6.13;;;15.10;99.90;;;;;;5034596;28;20555;-75
2023/05/25 05:27:33;;;;;;;9.50;6.33;;;15.10;99.90;;;;;;5034807;28;20644;-75
2023/05/25 05:30:00;;;;;;;12.63;8.17;;;15.20;99.90;;;;;;5034642;28;20880;-76
2023/05/25 05:32:28;;;;;;;15.77;8.23;;;15.20;99.90;;;;;;5034353;28;20460;-75
2023/05/25 05:34:55;;;;;;;10.03;6.57;;;15.30;99.90;;;;;;5034813;28;20810;-75
2023/05/25 05:37:23;;;;;;;9.10;8.20;;;15.30;99.90;;;;;;5038451;28;20506;-76
2023/05/25 05:39:52;;;;;;;10.00;8.50;;;15.40;99.90;;;;;;5033423;28;21041;-75
2023/05/25 05:42:19;;;;;;;10.90;7.00;;;15.40;99.90;;;;;;5035183;28;20598;-75
2023/05/25 05:44:46;;;;;;;10.43;7.80;;;15.50;99.90;;;;;;5034568;28;20490;-76
2023/05/25 05:47:13;;;;;;;13.00;7.80;;;15.60;99.90;;;;;;5034782;28;20475;-76
2023/05/25 05:52:26;;;;;;;12.60;7.80;;;15.70;99.90;;;;;;5034367;28;20484;-76
2023/05/25 05:54:57;;;;;;;12.13;8.77;;;15.80;99.90;;;;;;5024791;28;21005;-75
2023/05/25 05:57:24;;;;;;;14.80;9.50;;;15.80;99.90;;;;;;5034399;28;20475;-75
2023/05/25 05:59:51;;;;;;;10.13;7.30;;;15.90;99.90;;;;;;5033818;28;20865;-76
2023/05/25 06:02:18;;;;;;;12.60;9.07;;;16.00;99.90;;;;;;5034522;28;20464;-75
2023/05/25 06:04:47;;;;;;;10.97;8.57;;;16.10;99.90;;;;;;5033673;28;20831;-75
2023/05/25 06:07:16;;;;;;;12.80;8.87;;;16.10;99.90;;;;;;5034771;28;20476;-75
2023/05/25 06:09:43;;;;;;;9.50;6.63;;;16.20;99.90;;;;;;5033650;28;20865;-75
2023/05/25 06:12:10;;;;;;;11.23;9.63;;;16.30;99.90;;;;;;5033939;28;20802;-75
2023/05/25 06:14:37;;;;;;;12.23;9.87;;;16.40;99.90;;;;;;5033795;28;20468;-75
2023/05/25 06:17:05;;;;;;;12.70;9.67;;;16.50;99.90;;;;;;5025522;28;20472;-76
2023/05/25 06:19:35;;;;;;;10.23;9.20;;;16.60;99.90;;;;;;5023444;28;20534;-76
2023/05/25 06:22:06;;;;;;;11.27;7.67;;;16.70;99.90;;;;;;5031364;28;20523;-75
2023/05/25 06:24:33;;;;;;;10.50;7.63;;;16.80;99.90;;;;;;5033751;28;20487;-76
2023/05/25 06:27:02;;;;;;;9.97;7.23;;;16.90;99.90;;;;;;5032636;28;20464;-75
2023/05/25 06:29:28;;;;;;;12.67;9.53;;;17.10;99.90;;;;;;5033358;28;20478;-75
2023/05/25 06:31:55;;;;;;;12.27;8.83;;;17.20;99.90;;;;;;5032583;28;20467;-76
2023/05/25 06:37:01;;;;;;;10.27;8.13;;;17.50;99.90;;;;;;5296958;23;20994;-75
2023/05/25 06:39:29;;;;;;;11.53;7.70;;;17.60;99.90;;;;;;5011607;28;20457;-73
2023/05/25 06:41:56;;;;;;;14.60;8.53;;;17.80;99.90;;;;;;5012333;28;20469;-73
2023/05/25 06:44:23;;;;;;;11.23;6.47;;;18.00;99.90;;;;;;5013014;28;20493;-75
2023/05/25 06:46:54;;;;;;;8.97;7.33;;;18.20;99.90;;;;;;5013108;28;20532;-75
2023/05/25 06:49:20;;;;;;;14.50;7.40;;;18.40;99.90;;;;;;5012616;28;20471;-74
2023/05/25 06:51:49;;;;;;;12.67;6.50;;;18.60;99.90;;;;;;5011874;28;20982;-75
2023/05/25 06:54:18;;;;;;;7.90;6.53;;;18.80;99.90;;;;;;5012655;28;20465;-75
2023/05/25 06:56:47;;;;;;;9.27;6.80;;;19.00;99.90;;;;;;5012942;28;20473;-74
2023/05/25 06:59:13;;;;;;;9.40;6.10;;;19.20;99.90;;;;;;5012416;28;20560;-77
2023/05/25 07:01:41;;;;;;;14.20;8.27;;;19.40;99.90;;;;;;5012677;28;20531;-74
2023/05/25 07:04:08;;;;;;;9.67;6.60;;;19.50;99.90;;;;;;5012323;28;20479;-75
2023/05/25 07:06:35;;;;;;;8.20;6.37;;;19.70;99.90;;;;;;5012932;28;20760;-74
2023/05/25 07:09:02;;;;;;;7.80;5.50;;;19.90;99.90;;;;;;5011720;28;20477;-74
2023/05/25 07:11:29;;;;;;;11.30;6.60;;;20.00;99.90;;;;;;4993746;28;20462;-75
2023/05/25 07:13:58;;;;;;;11.20;7.30;;;20.10;99.90;;;;;;4993022;28;20473;-74
2023/05/25 07:16:33;;;;;;;12.50;8.13;;;20.20;99.90;;;;;;4992858;28;22990;-76
2023/05/25 07:19:00;;;;;;;14.37;10.73;;;20.20;99.90;;;;;;4992967;28;20568;-76
2023/05/25 07:21:26;;;;;;;11.43;6.47;;;20.30;99.90;;;;;;4992968;28;20473;-75
2023/05/25 07:23:54;;;;;;;9.90;5.37;;;20.40;99.90;;;;;;4993344;28;20480;-75
2023/05/25 07:26:27;;;;;;;11.00;6.20;;;20.50;99.90;;;;;;4992318;28;20548;-75
2023/05/25 07:28:55;;;;;;;7.70;5.50;;;20.60;99.70;;;;;;4992411;28;21019;-74
2023/05/25 07:31:23;;;;;;;10.17;7.20;;;20.80;98.70;;;;;;4993437;28;20473;-74
2023/05/25 07:33:52;;;;;;;6.40;4.70;;;20.90;98.20;;;;;;4992813;28;20465;-75
2023/05/25 07:36:19;;;;;;;12.63;6.47;;;21.00;96.80;;;;;;4991638;28;20482;-74
2023/05/25 07:38:47;;;;;;;9.27;5.70;;;21.10;96.00;;;;;;4992697;28;21019;-75
2023/05/25 07:41:14;;;;;;;14.67;5.90;;;21.30;95.50;;;;;;4991499;28;20466;-75
2023/05/25 07:43:41;;;;;;;7.50;5.17;;;21.40;94.90;;;;;;4992579;28;20875;-75
2023/05/25 07:46:08;;;;;;;7.43;4.40;;;21.50;94.40;;;;;;4992083;28;20505;-75
2023/05/25 07:48:36;;;;;;;7.93;5.00;;;21.70;94.20;;;;;;4992443;28;20524;-74
2023/05/25 07:51:04;;;;;;;9.57;5.50;;;21.70;92.60;;;;;;4992540;28;20536;-76
2023/05/25 07:53:38;;;;;;;11.27;7.20;;;21.90;92.30;;;;;;4994535;28;20462;-74
2023/05/25 07:56:06;;;;;;;9.67;7.07;;;21.90;92.00;;;;;;4996534;28;20473;-74
2023/05/25 07:58:50;;;;;;;8.43;5.90;;;22.00;91.40;;;;;;4995032;28;20524;-75
2023/05/25 08:01:29;;;;;;;6.90;4.73;;;22.00;91.60;;;;;;4994243;28;20799;-75
2023/05/25 08:03:58;;;;;;;8.17;5.27;;;22.00;91.10;;;;;;4987961;28;20465;-74
2023/05/25 08:06:25;;;;;;;10.83;8.03;;;22.00;90.80;;;;;;4995833;28;20481;-74
2023/05/25 08:08:52;;;;;;;9.93;4.23;;;22.10;90.40;;;;;;4996079;28;20489;-74
2023/05/25 08:11:26;;;;;;;9.43;6.73;;;22.20;90.60;;;;;;4996014;28;20465;-75
2023/05/25 08:13:56;;;;;;;7.33;5.70;;;22.30;90.80;;;;;;4996164;28;20478;-74
2023/05/25 08:16:23;;;;;;;9.17;4.67;;;22.40;90.20;;;;;;4995427;28;20478;-74
2023/05/25 08:18:50;;;;;;;6.47;4.40;;;22.50;89.70;;;;;;4997138;28;20781;-77
2023/05/25 08:21:19;;;;;;;8.30;6.03;;;22.60;89.30;;;;;;4995018;28;20794;-76
2023/05/25 08:23:46;;;;;;;7.90;5.43;;;22.70;88.40;;;;;;4996148;28;20560;-76
2023/05/25 08:26:13;;;;;;;10.63;4.73;;;22.70;87.80;;;;;;4995844;28;20484;-76
2023/05/25 08:28:39;;;;;;;10.87;5.80;;;22.80;85.70;;;;;;4995525;28;20524;-75
2023/05/25 08:31:06;;;;;;;10.27;6.33;;;22.80;85.10;;;;;;4995739;28;20804;-75
2023/05/25 08:33:33;;;;;;;8.90;5.57;;;22.80;84.60;;;;;;4995767;28;21002;-75
2023/05/25 08:36:00;;;;;;;5.43;4.53;;;22.80;84.70;;;;;;4996725;28;20473;-75
2023/05/25 08:38:29;;;;;;;6.80;4.60;;;22.80;84.20;;;;;;4997182;28;20512;-74
2023/05/25 08:41:04;;;;;;;8.30;5.20;;;22.70;83.80;;;;;;4997928;28;20947;-75
2023/05/25 08:43:32;;;;;;;6.37;4.50;;;22.70;83.80;;;;;;4996705;28;20506;-75
2023/05/25 08:46:04;;;;;;;10.83;7.90;;;22.60;83.80;;;;;;4985554;28;20473;-76
2023/05/25 08:48:34;;;;;;;11.90;5.93;;;22.60;85.00;;;;;;4996173;28;21034;-75
2023/05/25 08:51:04;;;;;;;8.67;5.00;;;22.50;88.00;;;;;;4996806;28;20473;-76
2023/05/25 08:53:36;;;;;;;11.27;5.93;;;22.30;89.20;;;;;;4995969;28;20505;-76
2023/05/25 08:56:10;;;;;;;10.53;6.53;;;22.30;87.90;;;;;;4996914;28;20500;-76
2023/05/25 08:58:44;;;;;;;9.60;6.13;;;22.30;87.10;;;;;;4997269;28;20484;-74
2023/05/25 09:01:19;;;;;;;7.40;4.53;;;22.20;86.40;;;;;;4996306;28;20485;-76
2023/05/25 09:03:48;;;;;;;5.63;4.13;;;22.20;85.30;;;;;;4994754;28;20457;-74
2023/05/25 09:06:23;;;;;;;8.60;5.17;;;22.20;84.60;;;;;;4986004;28;20501;-74
2023/05/25 09:08:54;;;;;;;6.70;5.70;;;22.20;85.10;;;;;;4977362;28;20556;-73
2023/05/25 09:11:23;;;;;;;5.03;4.00;;;22.20;85.60;;;;;;4995599;28;20979;-74
2023/05/25 09:13:50;;;;;;;8.33;5.37;;;22.20;85.00;;;;;;4995177;28;20469;-74
2023/05/25 09:16:18;;;;;;;6.50;3.87;;;22.20;84.40;;;;;;4995043;28;20461;-75
2023/05/25 09:18:45;;;;;;;5.80;4.73;;;22.10;83.60;;;;;;4995271;28;20470;-75
2023/05/25 09:21:12;;;;;;;9.17;6.17;;;22.10;82.80;;;;;;4995587;28;20494;-75
2023/05/25 09:23:40;;;;;;;5.50;5.00;;;22.00;83.60;;;;;;4994967;28;20553;-76
2023/05/25 09:26:09;;;;;;;8.83;6.50;;;21.90;84.60;;;;;;4994502;28;20575;-75
2023/05/25 09:28:46;;;;;;;6.87;6.03;;;21.80;84.60;;;;;;4993829;28;20477;-77
2023/05/25 09:31:14;;;;;;;5.63;5.10;;;21.80;84.50;;;;;;4993915;28;20857;-76
2023/05/25 09:33:41;;;;;;;8.13;4.80;;;21.70;84.20;;;;;;4994868;28;20493;-74
2023/05/25 09:36:09;;;;;;;11.23;7.30;;;21.70;84.60;;;;;;4994476;28;20513;-75
2023/05/25 09:38:36;;;;;;;6.70;5.80;;;21.70;85.20;;;;;;4994752;28;20474;-74
2023/05/25 09:41:04;;;;;;;8.63;6.30;;;21.80;86.70;;;;;;4995550;28;20893;-75
2023/05/25 09:43:33;;;;;;;6.40;5.43;;;21.80;88.00;;;;;;4994157;28;20493;-74
2023/05/25 09:46:00;;;;;;;8.30;5.67;;;21.80;87.90;;;;;;4995074;28;20935;-76
2023/05/25 09:48:28;;;;;;;5.87;5.10;;;22.00;87.60;;;;;;4995076;28;20474;-74
2023/05/25 09:50:56;;;;;;;9.93;7.50;;;22.00;87.10;;;;;;4983477;28;20472;-77
2023/05/25 09:53:23;;;;;;;6.50;5.07;;;22.00;87.20;;;;;;4994487;28;20474;-74
2023/05/25 09:55:54;;;;;;;8.23;5.70;;;22.10;86.60;;;;;;4993972;28;20820;-74
2023/05/25 09:58:23;;;;;;;10.13;5.40;;;22.10;86.00;;;;;;4994294;28;20541;-74
2023/05/25 10:00:55;;;;;;;6.07;4.63;;;22.20;85.20;;;;;;4993772;28;20501;-74
2023/05/25 10:03:22;;;;;;;9.07;5.17;;;22.20;84.00;;;;;;4994419;28;20466;-74
2023/05/25 10:05:50;;;;;;;5.77;4.23;;;22.20;83.60;;;;;;4994110;28;20528;-74
2023/05/25 10:08:20;;;;;;;6.47;5.77;;;22.20;83.80;;;;;;4994720;28;20466;-76
2023/05/25 10:10:50;;;;;;;8.83;4.40;;;22.20;83.90;;;;;;4983080;28;20553;-75
2023/05/25 10:13:20;;;;;;;6.70;4.93;;;22.10;83.70;;;;;;4994031;28;20454;-73
2023/05/25 10:15:48;;;;;;;7.90;4.63;;;22.10;83.70;;;;;;4993383;28;20549;-74
2023/05/25 10:18:24;;;;;;;8.47;7.63;;;22.00;83.40;;;;;;4994481;28;20834;-75
2023/05/25 10:21:03;;;;;;;6.67;6.00;;;22.10;83.70;;;;;;4993252;28;20473;-75
2023/05/25 10:23:39;;;;;;;7.97;5.50;;;22.10;84.00;;;;;;4994457;28;20532;-75
2023/05/25 10:26:07;;;;;;;12.50;8.20;;;22.10;84.60;;;;;;4993338;28;20466;-73
2023/05/25 10:28:39;;;;;;;7.63;5.07;;;22.10;85.40;;;;;;4994107;28;20474;-75
2023/05/25 10:31:09;;;;;;;6.93;5.10;;;22.00;85.60;;;;;;4981114;28;20474;-77
2023/05/25 10:33:37;;;;;;;10.37;5.90;;;21.90;86.40;;;;;;4993712;28;20505;-75
2023/05/25 10:36:09;;;;;;;7.00;5.63;;;21.90;86.80;;;;;;4992693;28;20557;-75
2023/05/25 10:38:37;;;;;;;6.20;5.57;;;21.90;86.50;;;;;;4993966;28;20484;-74
2023/05/25 10:41:05;;;;;;;10.07;6.33;;;21.90;86.10;;;;;;4992600;28;20509;-73
2023/05/25 10:43:33;;;;;;;7.67;5.27;;;21.90;86.00;;;;;;4994575;28;20462;-76
2023/05/25 10:46:00;;;;;;;7.83;5.83;;;21.90;85.70;;;;;;4993924;28;20470;-75
2023/05/25 10:48:37;;;;;;;9.87;6.40;;;21.90;85.30;;;;;;4994066;28;20504;-75
2023/05/25 10:51:05;;;;;;;7.47;6.17;;;21.90;84.00;;;;;;4994081;28;20493;-75
2023/05/25 10:53:33;;;;;;;6.53;4.83;;;21.90;84.00;;;;;;4994157;28;20545;-73
2023/05/25 10:56:05;;;;;;;7.90;4.87;;;22.00;84.60;;;;;;4993139;28;20485;-75
2023/05/25 10:58:33;;;;;;;8.60;5.23;;;22.00;84.90;;;;;;4993716;28;20471;-74
2023/05/25 11:01:01;;;;;;;18.00;7.13;;;22.00;83.90;;;;;;4993462;28;21066;-74
2023/05/25 11:03:54;;;;;;;11.20;7.83;;;22.00;84.20;;;;;;4994228;28;20473;-75
2023/05/25 11:06:23;;;;;;;10.10;6.20;;;22.00;85.00;;;;;;4993132;28;20828;-74
2023/05/25 11:08:51;;;;;;;7.33;5.87;;;22.00;85.20;;;;;;4994257;28;20504;-74
2023/05/25 11:11:21;;;;;;;7.80;5.93;;;22.00;85.00;;;;;;4993242;28;20493;-75
2023/05/25 11:13:49;;;;;;;13.70;10.30;;;22.10;85.10;;;;;;4993853;28;20466;-73
2023/05/25 11:16:23;;;;;;;8.50;6.70;;;22.10;85.30;;;;;;4993217;28;20544;-75
2023/05/25 11:19:02;;;;;;;10.00;6.53;;;22.20;85.30;;;;;;4993111;28;20470;-75
2023/05/25 11:21:43;;;;;;;7.10;4.80;;;22.20;85.30;;;;;;4982944;28;20951;-76
2023/05/25 11:24:16;;;;;;;6.60;5.20;;;22.30;84.50;;;;;;4992844;28;20557;-75
2023/05/25 11:27:01;;;;;;;6.73;6.07;;;22.30;84.30;;;;;;4993394;28;20470;-74
2023/05/25 11:29:31;;;;;;;10.23;6.40;;;22.20;83.90;;;;;;4993802;28;20473;-74
2023/05/25 11:31:59;;;;;;;8.37;6.20;;;22.20;83.60;;;;;;4994124;28;20489;-75
2023/05/25 11:34:28;;;;;;;5.03;4.60;;;22.20;83.40;;;;;;4993369;28;20481;-75
2023/05/25 11:37:00;;;;;;;6.33;4.37;;;22.10;83.50;;;;;;4993662;28;20528;-74
2023/05/25 11:39:28;;;;;;;7.33;5.10;;;22.20;83.50;;;;;;4993609;28;20951;-74
2023/05/25 11:41:56;;;;;;;6.10;5.00;;;22.30;84.00;;;;;;4993723;28;20470;-75
2023/05/25 11:44:28;;;;;;;6.10;5.33;;;22.30;83.70;;;;;;4992971;28;20505;-74
2023/05/25 11:46:56;;;;;;;6.90;5.27;;;22.30;83.30;;;;;;4993087;28;20481;-73
2023/05/25 11:49:24;;;;;;;5.30;4.73;;;22.30;83.10;;;;;;4992930;28;20478;-73
2023/05/25 11:51:53;;;;;;;9.97;5.33;;;22.20;83.30;;;;;;4993796;28;20459;-73
2023/05/25 11:54:25;;;;;;;4.80;4.13;;;22.20;83.80;;;;;;4992984;28;21039;-74
2023/05/25 11:56:52;;;;;;;6.27;4.70;;;22.10;83.70;;;;;;4993390;28;20881;-74
2023/05/25 11:59:20;;;;;;;4.90;4.40;;;22.00;83.80;;;;;;4993259;28;20549;-73
2023/05/25 12:01:56;;;;;;;12.00;7.73;;;22.00;84.40;;;;;;4993525;28;20844;-76
2023/05/25 12:04:23;;;;;;;6.60;5.37;;;21.90;85.50;;;;;;4993238;28;20501;-76
2023/05/25 12:06:52;;;;;;;7.10;5.77;;;22.00;86.10;;;;;;4993429;28;20469;-76
2023/05/25 12:09:22;;;;;;;7.90;6.13;;;22.00;86.10;;;;;;4993375;28;20557;-76
2023/05/25 12:11:54;;;;;;;11.53;8.10;;;22.10;86.60;;;;;;4993825;28;20541;-76
2023/05/25 12:14:22;;;;;;;6.20;5.53;;;22.10;86.80;;;;;;4993027;28;20466;-76
2023/05/25 12:16:50;;;;;;;5.97;5.27;;;22.00;86.60;;;;;;4994619;28;20527;-75
2023/05/25 12:19:18;;;;;;;6.50;4.87;;;22.00;86.50;;;;;;4993218;28;20502;-76
2023/05/25 12:21:46;;;;;;;9.00;5.73;;;22.00;86.70;;;;;;4994229;28;20470;-75
2023/05/25 12:24:14;;;;;;;8.63;5.80;;;22.00;87.00;;;;;;4993356;28;20557;-75
2023/05/25 12:26:48;;;;;;;9.80;7.50;;;22.00;87.40;;;;;;4993469;28;20474;-76
2023/05/25 12:29:15;;;;;;;9.20;6.63;;;22.00;88.30;;;;;;4993249;28;20580;-74
2023/05/25 12:31:42;;;;;;;10.37;7.47;;;22.00;88.70;;;;;;4993502;28;20966;-75
2023/05/25 12:34:11;;;;;;;7.73;6.37;;;22.00;89.00;;;;;;4993700;28;20508;-75
2023/05/25 12:36:42;;;;;;;9.27;5.10;;;22.00;89.10;;;;;;4992488;28;20486;-75
2023/05/25 12:39:10;;;;;;;6.83;5.77;;;22.00;89.40;;;;;;4986294;28;20466;-75
2023/05/25 12:41:50;;;;;;;10.13;6.30;;;22.00;89.50;;;;;;4996234;28;20569;-75
2023/05/25 12:44:26;;;;;;;8.17;6.30;;;22.00;89.30;;;;;;4985414;28;21032;-75
2023/05/25 12:46:55;;;;;;;9.23;7.37;;;22.10;89.20;;;;;;4996244;28;20801;-75
2023/05/25 12:49:24;;;;;;;15.80;8.10;;;22.10;89.50;;;;;;4996672;28;20951;-75
2023/05/25 12:51:55;;;;;;;11.37;7.87;;;22.00;90.10;;;;;;4997854;28;20539;-74
2023/05/25 12:54:43;;;;;;;7.53;6.77;;;22.00;90.40;;;;;;4996774;28;20495;-75
2023/05/25 12:57:24;;;;;;;12.60;6.80;;;21.90;90.50;;;;;;4996567;28;20516;-74
2023/05/25 12:59:56;;;;;;;9.60;6.37;;;21.80;90.50;;;;;;4995742;28;20474;-75
2023/05/25 13:02:31;;;;;;;7.50;5.70;;;21.80;90.50;;;;;;4995966;28;20827;-75